Time;durP1;ratioP1;P1;durP2;ratioP2;P2;SDS_P1;SDS_P2;PMS_P1;PMS_P2;Temp;Humidity;BMP_temperature;BMP_pressure;BME280_temperature;BME280_humidity;BME280_pressure;Samples;Min_cycle;Max_cycle;Signal;HPM_P1;HPM_P2
2022/03/06 00:01:15;;;;;;;17.73;6.47;;;;;1.80;101752.00;;;;4909297;29;20374;-67
2022/03/06 00:04:01;;;;;;;14.87;7.57;;;;;1.60;101742.00;;;;4902827;29;20365;-66
2022/03/06 00:06:48;;;;;;;14.37;7.23;;;;;1.60;101752.00;;;;4911173;29;20307;-67
2022/03/06 00:09:35;;;;;;;14.93;8.17;;;;;1.60;101748.00;;;;4907647;29;20780;-68
2022/03/06 00:12:22;;;;;;;16.73;7.17;;;;;1.60;101748.00;;;;4909410;29;20697;-66
2022/03/06 00:15:08;;;;;;;17.23;7.57;;;;;1.50;101751.00;;;;4896574;29;20307;-66
2022/03/06 00:17:55;;;;;;;14.87;7.30;;;;;1.40;101749.00;;;;4902585;29;20286;-69
2022/03/06 00:20:42;;;;;;;15.27;7.40;;;;;1.40;101756.00;;;;4913235;29;20244;-68
2022/03/06 00:23:28;;;;;;;20.33;7.03;;;;;1.40;101753.00;;;;4914993;29;20337;-67
2022/03/06 00:26:16;;;;;;;18.07;8.27;;;;;1.50;101751.00;;;;4912355;29;20383;-68
2022/03/06 00:29:03;;;;;;;19.77;7.47;;;;;1.40;101753.00;;;;4910537;29;20229;-67
2022/03/06 00:31:49;;;;;;;14.57;7.57;;;;;1.40;101752.00;;;;4914984;29;20237;-68
2022/03/06 00:34:35;;;;;;;18.73;7.90;;;;;1.40;101744.00;;;;4911333;29;20313;-69
2022/03/06 00:37:21;;;;;;;19.80;7.37;;;;;1.30;101749.00;;;;4911625;29;20305;-66
2022/03/06 00:40:09;;;;;;;18.90;8.07;;;;;1.40;101748.00;;;;4900487;29;20357;-68
2022/03/06 00:42:56;;;;;;;16.50;7.93;;;;;1.40;101751.00;;;;4898206;29;20797;-68
2022/03/06 00:45:43;;;;;;;19.43;7.30;;;;;1.50;101749.00;;;;4902539;29;20238;-69
2022/03/06 00:48:29;;;;;;;16.50;7.87;;;;;1.40;101747.00;;;;4896900;29;20752;-71
2022/03/06 00:51:16;;;;;;;14.60;7.70;;;;;1.40;101750.00;;;;4914336;29;20369;-67
2022/03/06 00:54:02;;;;;;;17.50;7.83;;;;;1.40;101751.00;;;;4912248;29;20249;-68
2022/03/06 00:56:48;;;;;;;21.80;8.87;;;;;1.40;101750.00;;;;4914293;29;20357;-67
2022/03/06 00:59:36;;;;;;;16.37;7.77;;;;;1.30;101751.00;;;;4910624;29;20233;-67
2022/03/06 01:02:22;;;;;;;16.70;7.83;;;;;1.40;101758.00;;;;4912110;29;20228;-68
2022/03/06 01:05:10;;;;;;;17.67;7.73;;;;;1.30;101755.00;;;;4912284;29;20361;-68
2022/03/06 01:07:57;;;;;;;16.97;8.63;;;;;1.30;101753.00;;;;4904104;29;20220;-69
2022/03/06 01:10:46;;;;;;;16.47;7.90;;;;;1.30;101754.00;;;;4911880;29;20294;-67
2022/03/06 01:13:32;;;;;;;15.73;7.67;;;;;1.30;101765.00;;;;4913691;29;20241;-67
2022/03/06 01:16:20;;;;;;;18.03;8.57;;;;;1.40;101770.00;;;;4911707;29;20252;-67
2022/03/06 01:19:06;;;;;;;17.83;8.83;;;;;1.30;101761.00;;;;4905540;29;20370;-67
2022/03/06 01:21:52;;;;;;;16.33;7.30;;;;;1.30;101767.00;;;;4912083;29;20233;-66
2022/03/06 01:24:39;;;;;;;16.77;7.67;;;;;1.20;101772.00;;;;4914280;29;20244;-67
2022/03/06 01:27:25;;;;;;;15.37;7.57;;;;;1.00;101762.00;;;;4910617;29;20233;-69
2022/03/06 01:30:15;;;;;;;11.80;6.93;;;;;1.00;101768.00;;;;4909676;29;20238;-66
2022/03/06 01:33:02;;;;;;;18.17;7.73;;;;;1.00;101766.00;;;;4904859;29;20232;-68
2022/03/06 01:35:49;;;;;;;13.07;7.70;;;;;1.00;101743.00;;;;4911367;29;20248;-67
2022/03/06 01:38:36;;;;;;;15.10;7.63;;;;;1.00;101769.00;;;;4911055;29;20612;-68
2022/03/06 01:41:23;;;;;;;13.90;7.03;;;;;0.90;101758.00;;;;4913696;29;20233;-65
2022/03/06 01:44:13;;;;;;;18.23;7.03;;;;;1.00;101777.00;;;;4907861;29;20236;-67
2022/03/06 01:46:59;;;;;;;16.47;7.70;;;;;0.90;101768.00;;;;4898142;29;20230;-68
2022/03/06 01:49:47;;;;;;;15.87;8.33;;;;;1.00;101783.00;;;;4900840;29;20391;-70
2022/03/06 01:52:33;;;;;;;15.03;7.27;;;;;0.90;101779.00;;;;4900022;29;20341;-67
2022/03/06 01:55:22;;;;;;;16.90;8.77;;;;;1.10;101782.00;;;;4902221;29;20246;-67
2022/03/06 01:58:10;;;;;;;17.83;7.10;;;;;0.90;101754.00;;;;4913391;29;20237;-66
2022/03/06 02:00:57;;;;;;;17.07;8.00;;;;;0.80;101780.00;;;;4904410;29;20242;-68
2022/03/06 02:03:43;;;;;;;14.67;7.43;;;;;1.00;101776.00;;;;4911998;29;21074;-67
2022/03/06 02:06:31;;;;;;;13.13;7.33;;;;;1.00;101784.00;;;;4910771;29;22573;-66
2022/03/06 02:09:18;;;;;;;16.33;8.23;;;;;1.00;101782.00;;;;4904479;29;20595;-68
2022/03/06 02:12:24;;;;;;;18.53;7.93;;;;;1.00;101776.00;;;;4904820;29;20238;-67
2022/03/06 02:15:12;;;;;;;14.23;7.23;;;;;0.80;101779.00;;;;4903666;29;20742;-68
2022/03/06 02:17:58;;;;;;;15.37;8.07;;;;;0.90;101779.00;;;;4911428;29;20347;-67
2022/03/06 02:20:44;;;;;;;14.07;7.73;;;;;1.00;101773.00;;;;4911902;29;20220;-66
2022/03/06 02:23:32;;;;;;;17.57;8.20;;;;;0.90;101770.00;;;;4909285;29;20240;-67
2022/03/06 02:26:18;;;;;;;15.67;7.13;;;;;0.80;101774.00;;;;4909818;29;20696;-67
2022/03/06 02:29:04;;;;;;;15.97;6.90;;;;;0.70;101770.00;;;;4902559;29;20233;-66
2022/03/06 02:31:51;;;;;;;15.67;7.70;;;;;0.70;101767.00;;;;4909906;29;20237;-66
2022/03/06 02:34:38;;;;;;;10.63;6.40;;;;;0.60;101770.00;;;;4912624;29;20272;-68
2022/03/06 02:37:24;;;;;;;12.83;6.83;;;;;0.50;101769.00;;;;4909865;29;20358;-67
2022/03/06 02:40:14;;;;;;;14.70;7.27;;;;;0.30;101765.00;;;;4903443;29;20666;-69
2022/03/06 02:43:00;;;;;;;17.03;7.60;;;;;0.40;101772.00;;;;4908850;29;20249;-69
2022/03/06 02:45:47;;;;;;;21.67;9.07;;;;;0.50;101776.00;;;;4909194;29;20260;-67
2022/03/06 02:48:33;;;;;;;15.40;7.50;;;;;0.60;101779.00;;;;4909354;29;20365;-67
2022/03/06 02:51:19;;;;;;;14.97;7.37;;;;;0.60;101775.00;;;;4906515;29;20245;-64
2022/03/06 02:54:05;;;;;;;14.23;7.87;;;;;0.50;101772.00;;;;4903321;29;20343;-67
2022/03/06 02:56:53;;;;;;;16.93;8.73;;;;;0.60;101770.00;;;;4911478;29;20736;-67
2022/03/06 02:59:40;;;;;;;17.73;9.03;;;;;0.70;101771.00;;;;4908662;29;20241;-67
2022/03/06 03:02:26;;;;;;;14.93;7.93;;;;;0.70;101770.00;;;;4906689;29;20233;-68
2022/03/06 03:05:13;;;;;;;18.87;8.50;;;;;0.40;101768.00;;;;4905937;29;20237;-66
2022/03/06 03:07:59;;;;;;;13.97;7.47;;;;;0.70;101770.00;;;;4902870;29;20362;-68
2022/03/06 03:10:45;;;;;;;15.67;7.63;;;;;0.70;101764.00;;;;4909062;29;20233;-67
2022/03/06 03:13:33;;;;;;;12.73;7.27;;;;;0.80;101771.00;;;;4909044;29;20318;-67
2022/03/06 03:16:19;;;;;;;13.40;7.50;;;;;0.90;101767.00;;;;4911338;29;20246;-67
2022/03/06 03:19:05;;;;;;;15.23;7.70;;;;;0.80;101775.00;;;;4907340;29;20593;-67
2022/03/06 03:21:51;;;;;;;16.47;8.03;;;;;0.70;101772.00;;;;4909140;29;20233;-66
2022/03/06 03:24:37;;;;;;;17.87;8.37;;;;;0.80;101769.00;;;;4911440;29;20252;-68
2022/03/06 03:27:23;;;;;;;15.90;8.23;;;;;0.90;101786.00;;;;4908991;29;20317;-66
2022/03/06 03:30:12;;;;;;;15.00;7.83;;;;;1.10;101778.00;;;;4903098;29;20706;-70
2022/03/06 03:32:58;;;;;;;19.30;7.50;;;;;0.70;101771.00;;;;4901474;29;20721;-66
2022/03/06 03:35:44;;;;;;;13.30;7.27;;;;;0.90;101775.00;;;;4909488;29;20249;-69
2022/03/06 03:38:31;;;;;;;18.00;8.20;;;;;0.90;101776.00;;;;4910610;29;20257;-68
2022/03/06 03:41:23;;;;;;;15.83;8.00;;;;;0.80;101779.00;;;;4909094;29;20323;-67
2022/03/06 03:44:09;;;;;;;16.57;7.90;;;;;0.80;101779.00;;;;4898709;29;20286;-67
2022/03/06 03:46:58;;;;;;;15.20;7.37;;;;;0.90;101782.00;;;;4909170;29;20234;-67
2022/03/06 03:49:45;;;;;;;14.37;7.07;;;;;0.90;101777.00;;;;4908456;29;21068;-69
2022/03/06 03:52:31;;;;;;;16.00;7.50;;;;;0.80;101784.00;;;;4911215;29;20786;-68
2022/03/06 03:55:18;;;;;;;14.27;7.43;;;;;0.70;101778.00;;;;4912749;29;20245;-66
2022/03/06 03:58:05;;;;;;;17.00;7.70;;;;;0.70;101781.00;;;;4898324;29;20881;-70
2022/03/06 04:00:51;;;;;;;17.07;8.13;;;;;0.80;101792.00;;;;4911359;29;20327;-68
2022/03/06 04:03:40;;;;;;;15.00;7.67;;;;;0.80;101781.00;;;;4910896;29;20237;-67
2022/03/06 04:06:26;;;;;;;20.17;8.93;;;;;0.70;101794.00;;;;4912048;29;20249;-68
2022/03/06 04:09:13;;;;;;;19.00;8.07;;;;;0.70;101789.00;;;;4906306;29;20240;-66
2022/03/06 04:11:59;;;;;;;16.57;8.07;;;;;0.50;101787.00;;;;4909743;29;20224;-68
2022/03/06 04:14:46;;;;;;;16.20;7.43;;;;;0.50;101791.00;;;;4911527;29;20241;-66
2022/03/06 04:17:32;;;;;;;15.70;7.03;;;;;0.30;101780.00;;;;4911917;29;20233;-67
2022/03/06 04:20:20;;;;;;;13.43;7.40;;;;;0.30;101791.00;;;;4913752;29;20757;-66
2022/03/06 04:23:06;;;;;;;17.43;7.93;;;;;0.30;101804.00;;;;4907807;29;20727;-70
2022/03/06 04:25:53;;;;;;;14.40;7.30;;;;;0.30;101789.00;;;;4911398;29;20233;-67
2022/03/06 04:28:39;;;;;;;15.00;8.17;;;;;0.40;101792.00;;;;4915924;29;20233;-66
2022/03/06 04:31:25;;;;;;;14.57;6.93;;;;;0.50;101800.00;;;;4914056;29;20241;-68
2022/03/06 04:34:11;;;;;;;15.47;8.00;;;;;0.40;101805.00;;;;4911037;29;20256;-65
2022/03/06 04:36:59;;;;;;;18.63;8.33;;;;;0.50;101804.00;;;;4906684;29;20728;-67
2022/03/06 04:39:45;;;;;;;17.93;8.13;;;;;0.30;101807.00;;;;4900940;29;20238;-69
2022/03/06 04:42:32;;;;;;;17.30;8.23;;;;;0.30;101816.00;;;;4899068;29;20725;-69
2022/03/06 04:45:18;;;;;;;11.13;7.17;;;;;0.40;101814.00;;;;4894126;29;20282;-67
2022/03/06 04:48:05;;;;;;;16.77;7.90;;;;;0.30;101817.00;;;;4905918;29;20245;-69
2022/03/06 04:50:51;;;;;;;15.43;7.87;;;;;0.30;101818.00;;;;4913099;29;20237;-68
2022/03/06 04:53:39;;;;;;;16.80;9.13;;;;;0.30;101815.00;;;;4911607;29;20241;-67
2022/03/06 04:56:26;;;;;;;17.77;7.70;;;;;0.20;101816.00;;;;4912906;29;20720;-66
2022/03/06 04:59:12;;;;;;;16.63;7.63;;;;;0.20;101816.00;;;;4907493;29;20732;-69
2022/03/06 05:01:58;;;;;;;16.97;8.43;;;;;0.20;101824.00;;;;4913718;29;20249;-67
2022/03/06 05:04:45;;;;;;;14.67;7.07;;;;;0.20;101816.00;;;;4910149;29;20236;-68
2022/03/06 05:07:31;;;;;;;16.50;8.13;;;;;0.20;101823.00;;;;4907799;29;20241;-70
2022/03/06 05:10:19;;;;;;;15.57;7.83;;;;;0.20;101815.00;;;;4906273;29;20241;-66
2022/03/06 05:13:05;;;;;;;15.47;7.23;;;;;0.10;101819.00;;;;4904953;29;20241;-67
2022/03/06 05:15:52;;;;;;;16.97;7.37;;;;;0.00;101814.00;;;;4910822;29;20245;-66
2022/03/06 05:18:38;;;;;;;15.67;7.83;;;;;0.00;101815.00;;;;4913639;29;20236;-66
2022/03/06 05:21:25;;;;;;;16.43;7.23;;;;;0.00;101824.00;;;;4910970;29;20236;-67
2022/03/06 05:24:11;;;;;;;15.00;7.40;;;;;-0.20;101828.00;;;;4910764;29;20357;-66
2022/03/06 05:26:59;;;;;;;14.30;7.17;;;;;-0.10;101823.00;;;;4911059;29;20273;-67
2022/03/06 05:29:45;;;;;;;21.00;8.60;;;;;-0.10;101832.00;;;;4910714;29;20245;-67
2022/03/06 05:32:31;;;;;;;19.43;7.43;;;;;-0.10;101832.00;;;;4912675;29;20340;-68
2022/03/06 05:35:17;;;;;;;15.03;7.80;;;;;-0.30;101795.00;;;;4910620;29;20346;-70
2022/03/06 05:38:04;;;;;;;14.20;7.30;;;;;-0.10;101825.00;;;;4910135;29;20229;-66
2022/03/06 05:40:50;;;;;;;13.53;7.70;;;;;-0.20;101829.00;;;;4909619;29;20236;-67
2022/03/06 05:43:37;;;;;;;17.03;8.17;;;;;-0.30;101834.00;;;;4910510;29;20313;-67
2022/03/06 05:46:23;;;;;;;17.23;8.77;;;;;-0.20;101836.00;;;;4902573;29;20589;-67
2022/03/06 05:49:13;;;;;;;18.73;7.73;;;;;-0.30;101835.00;;;;4898652;29;20250;-68
2022/03/06 05:51:59;;;;;;;15.40;7.73;;;;;-0.30;101848.00;;;;4903070;29;20225;-66
2022/03/06 05:54:46;;;;;;;11.60;7.47;;;;;-0.40;101845.00;;;;4910201;29;20735;-66
2022/03/06 05:57:32;;;;;;;15.33;7.40;;;;;-0.40;101853.00;;;;4913426;29;20376;-68
2022/03/06 06:00:20;;;;;;;15.10;7.80;;;;;-0.40;101854.00;;;;4903060;29;20237;-66
2022/03/06 06:03:06;;;;;;;17.27;7.40;;;;;-0.50;101869.00;;;;4900693;29;20298;-69
2022/03/06 06:05:52;;;;;;;13.30;7.73;;;;;-0.50;101864.00;;;;4899540;29;20241;-68
2022/03/06 06:08:41;;;;;;;13.53;6.30;;;;;-0.70;101870.00;;;;4909180;29;20282;-66
2022/03/06 06:11:28;;;;;;;13.73;7.40;;;;;-0.70;101878.00;;;;4910397;29;20248;-67
2022/03/06 06:14:14;;;;;;;13.93;6.57;;;;;-0.50;101871.00;;;;4899544;29;20313;-68
2022/03/06 06:17:07;;;;;;;13.77;6.73;;;;;-0.60;101880.00;;;;4896632;29;20278;-69
2022/03/06 06:19:53;;;;;;;16.30;7.37;;;;;-0.70;101882.00;;;;4909351;29;20704;-67
2022/03/06 06:22:40;;;;;;;12.80;7.00;;;;;-0.70;101885.00;;;;4909770;29;20249;-67
2022/03/06 06:25:26;;;;;;;13.53;6.47;;;;;-0.70;101888.00;;;;4911956;29;20723;-68
2022/03/06 06:28:12;;;;;;;12.97;7.73;;;;;-0.60;101884.00;;;;4903694;29;20240;-67
2022/03/06 06:30:58;;;;;;;12.80;7.43;;;;;-0.40;101891.00;;;;4907013;29;20273;-66
2022/03/06 06:33:46;;;;;;;13.40;7.50;;;;;-0.50;101893.00;;;;4908812;29;20589;-67
2022/03/06 06:36:32;;;;;;;11.47;7.20;;;;;-0.40;101892.00;;;;4909249;29;20365;-67
2022/03/06 06:39:19;;;;;;;18.53;8.37;;;;;-0.40;101901.00;;;;4909246;29;20266;-67
2022/03/06 06:42:06;;;;;;;14.27;7.47;;;;;-0.40;101908.00;;;;4912090;29;20233;-67
2022/03/06 06:44:52;;;;;;;16.07;8.50;;;;;-0.40;101903.00;;;;4909206;29;20657;-68
2022/03/06 06:47:38;;;;;;;15.27;8.20;;;;;-0.30;101912.00;;;;4893035;29;20727;-68
2022/03/06 06:50:26;;;;;;;15.33;8.33;;;;;-0.20;101912.00;;;;4904946;29;20241;-67
2022/03/06 06:53:12;;;;;;;17.67;8.23;;;;;-0.10;101905.00;;;;4899989;29;20403;-64
2022/03/06 06:55:59;;;;;;;19.50;9.13;;;;;0.10;101911.00;;;;4904903;29;20237;-68
2022/03/06 06:58:45;;;;;;;17.90;9.33;;;;;0.10;101922.00;;;;4910365;29;20244;-66
2022/03/06 07:01:31;;;;;;;21.40;9.97;;;;;0.30;101925.00;;;;4909307;29;20296;-66
2022/03/06 07:04:18;;;;;;;15.47;8.93;;;;;0.40;101912.00;;;;4910630;29;20241;-67
2022/03/06 07:07:06;;;;;;;17.03;9.33;;;;;0.50;101921.00;;;;4894351;29;20249;-67
2022/03/06 07:09:52;;;;;;;19.70;9.50;;;;;0.50;101925.00;;;;4893757;29;20980;-67
2022/03/06 07:12:43;;;;;;;19.40;8.80;;;;;0.70;101933.00;;;;4906352;29;20233;-68
2022/03/06 07:15:32;;;;;;;23.23;8.97;;;;;0.80;101937.00;;;;4903161;29;20234;-68
2022/03/06 07:18:18;;;;;;;22.67;9.83;;;;;0.90;101936.00;;;;4903592;29;20313;-68
2022/03/06 07:21:04;;;;;;;16.03;8.77;;;;;1.00;101933.00;;;;4905552;29;20302;-69
2022/03/06 07:23:51;;;;;;;16.13;8.60;;;;;1.10;101939.00;;;;4907154;29;20321;-69
2022/03/06 07:26:37;;;;;;;15.87;9.40;;;;;1.20;101944.00;;;;4907916;29;20792;-68
2022/03/06 07:29:23;;;;;;;16.83;9.37;;;;;1.30;101957.00;;;;4908170;29;20313;-70
2022/03/06 07:32:10;;;;;;;20.40;9.03;;;;;1.50;101961.00;;;;4902777;29;20245;-69
2022/03/06 07:34:56;;;;;;;15.47;8.80;;;;;1.30;101959.00;;;;4907353;29;20233;-70
2022/03/06 07:37:43;;;;;;;19.70;9.47;;;;;1.40;101963.00;;;;4894833;29;20241;-70
2022/03/06 07:40:31;;;;;;;19.93;9.00;;;;;1.50;101961.00;;;;4895457;29;20939;-70
2022/03/06 07:43:17;;;;;;;18.33;9.77;;;;;1.50;101966.00;;;;4899523;29;20242;-70
2022/03/06 07:46:03;;;;;;;15.33;8.53;;;;;1.60;101969.00;;;;4905067;29;20303;-71
2022/03/06 07:48:50;;;;;;;17.77;8.87;;;;;1.60;101976.00;;;;4909092;29;20240;-70
2022/03/06 07:51:36;;;;;;;16.53;9.23;;;;;1.80;101969.00;;;;4905881;29;20270;-69
2022/03/06 07:54:22;;;;;;;18.13;9.07;;;;;1.70;101976.00;;;;4908628;29;20807;-69
2022/03/06 07:57:10;;;;;;;15.53;9.20;;;;;1.80;101973.00;;;;4910251;29;20290;-69
2022/03/06 07:59:56;;;;;;;17.60;8.37;;;;;1.90;101960.00;;;;4897098;29;20229;-69
2022/03/06 08:02:42;;;;;;;15.10;8.73;;;;;2.00;101973.00;;;;4905023;29;20739;-72
2022/03/06 08:05:29;;;;;;;17.87;9.00;;;;;2.10;101968.00;;;;4898095;29;20235;-71
2022/03/06 08:08:15;;;;;;;18.53;9.33;;;;;2.10;101979.00;;;;4902248;29;20233;-71
2022/03/06 08:11:01;;;;;;;21.77;9.30;;;;;2.20;101982.00;;;;4904926;29;20233;-70
2022/03/06 08:13:49;;;;;;;18.40;9.10;;;;;2.20;101980.00;;;;4909854;29;20237;-70
2022/03/06 08:16:35;;;;;;;16.63;9.30;;;;;2.20;101985.00;;;;4899918;29;20250;-70
2022/03/06 08:19:22;;;;;;;19.00;9.07;;;;;2.30;101992.00;;;;4907084;29;20720;-70
2022/03/06 08:22:09;;;;;;;18.43;8.73;;;;;2.20;101985.00;;;;4901637;29;20237;-71
2022/03/06 08:24:56;;;;;;;20.93;10.57;;;;;2.30;101994.00;;;;4907220;29;20633;-72
2022/03/06 08:27:42;;;;;;;20.43;10.30;;;;;2.60;101992.00;;;;4897338;29;20236;-69
2022/03/06 08:30:30;;;;;;;18.80;8.97;;;;;2.50;101994.00;;;;4907580;29;20252;-70
2022/03/06 08:33:16;;;;;;;17.70;8.93;;;;;2.60;101985.00;;;;4906637;29;20612;-70
2022/03/06 08:36:03;;;;;;;16.67;9.13;;;;;2.70;101995.00;;;;4900178;29;20239;-69
2022/03/06 08:38:49;;;;;;;16.50;9.37;;;;;2.80;102005.00;;;;4909597;29;20249;-69
2022/03/06 08:41:35;;;;;;;17.73;9.47;;;;;2.90;102008.00;;;;4911390;29;20229;-70
2022/03/06 08:44:22;;;;;;;19.67;10.30;;;;;3.00;102010.00;;;;4902341;29;20230;-70
2022/03/06 08:47:10;;;;;;;14.23;8.43;;;;;2.90;102010.00;;;;4905472;29;20274;-70
2022/03/06 08:49:56;;;;;;;19.00;9.40;;;;;3.00;102010.00;;;;4910821;29;20306;-71
2022/03/06 08:52:43;;;;;;;16.17;8.57;;;;;3.00;102011.00;;;;4908698;29;20254;-70
2022/03/06 08:55:29;;;;;;;17.90;9.83;;;;;3.10;102011.00;;;;4911345;29;20277;-69
2022/03/06 08:58:15;;;;;;;14.17;8.60;;;;;3.20;102004.00;;;;4905049;29;20305;-69
2022/03/06 09:01:02;;;;;;;16.17;8.63;;;;;3.20;102011.00;;;;4903921;29;20240;-69
2022/03/06 09:03:50;;;;;;;17.67;9.33;;;;;3.50;102016.00;;;;4910115;29;20228;-70
2022/03/06 09:06:36;;;;;;;14.80;9.03;;;;;3.50;102024.00;;;;4910610;29;20228;-71
2022/03/06 09:09:23;;;;;;;24.90;12.70;;;;;3.70;102003.00;;;;4910188;29;20293;-72
2022/03/06 09:12:09;;;;;;;15.83;8.80;;;;;3.80;102003.00;;;;4905022;29;20369;-70
2022/03/06 09:14:55;;;;;;;16.10;8.27;;;;;3.90;102012.00;;;;4910959;29;20354;-71
2022/03/06 09:17:42;;;;;;;17.53;9.20;;;;;4.20;102014.00;;;;4908743;29;20245;-69
2022/03/06 09:20:29;;;;;;;18.57;8.93;;;;;4.20;102010.00;;;;4906780;29;20305;-70
2022/03/06 09:23:15;;;;;;;13.10;8.10;;;;;4.30;102002.00;;;;4910865;29;20229;-70
2022/03/06 09:26:01;;;;;;;15.43;8.70;;;;;4.40;101999.00;;;;4906110;29;22575;-70
2022/03/06 09:28:48;;;;;;;21.33;8.87;;;;;4.50;101998.00;;;;4896520;29;20249;-70
2022/03/06 09:31:34;;;;;;;16.50;8.57;;;;;4.60;102007.00;;;;4899178;29;20238;-69
2022/03/06 09:34:20;;;;;;;15.27;8.10;;;;;4.60;102005.00;;;;4899552;29;20233;-69
2022/03/06 09:37:08;;;;;;;15.70;8.30;;;;;4.80;102021.00;;;;4900484;29;20235;-70
2022/03/06 09:39:54;;;;;;;14.87;8.13;;;;;4.90;102024.00;;;;4909634;29;20229;-70
2022/03/06 09:42:41;;;;;;;19.00;9.07;;;;;5.00;102025.00;;;;4911560;29;20275;-70
2022/03/06 09:45:30;;;;;;;14.10;7.97;;;;;5.10;102017.00;;;;4910689;29;20263;-71
2022/03/06 09:48:18;;;;;;;15.23;8.47;;;;;5.40;102021.00;;;;4910648;29;20238;-70
2022/03/06 09:51:05;;;;;;;15.10;7.87;;;;;5.50;102026.00;;;;4907489;29;20228;-69
2022/03/06 09:53:54;;;;;;;16.23;8.27;;;;;5.70;102015.00;;;;4909710;29;20240;-69
2022/03/06 09:56:41;;;;;;;18.27;8.27;;;;;5.70;102030.00;;;;4911974;29;20238;-68
2022/03/06 09:59:30;;;;;;;14.93;8.60;;;;;5.80;102026.00;;;;4909397;29;20787;-68
2022/03/06 10:02:17;;;;;;;14.73;8.07;;;;;5.70;102025.00;;;;4903424;29;20299;-68
2022/03/06 10:05:06;;;;;;;15.77;8.30;;;;;5.80;102023.00;;;;4914218;29;20229;-70
2022/03/06 10:07:52;;;;;;;17.80;9.40;;;;;5.70;102026.00;;;;4913196;29;20302;-68
2022/03/06 10:10:40;;;;;;;20.17;9.13;;;;;5.70;102028.00;;;;4912194;29;20872;-67
2022/03/06 10:13:29;;;;;;;13.17;7.63;;;;;5.80;102023.00;;;;4913384;29;20241;-69
2022/03/06 10:16:18;;;;;;;18.37;9.23;;;;;5.90;102025.00;;;;4903911;29;20253;-70
2022/03/06 10:19:04;;;;;;;16.10;9.00;;;;;6.10;102032.00;;;;4904513;29;20241;-68
2022/03/06 10:21:50;;;;;;;17.50;9.00;;;;;6.20;102034.00;;;;4911072;29;20241;-69
2022/03/06 10:24:46;;;;;;;17.30;9.13;;;;;6.20;102023.00;;;;4896789;29;20236;-71
2022/03/06 10:27:53;;;;;;;15.83;8.67;;;;;6.20;102031.00;;;;4909016;29;20321;-71
2022/03/06 10:30:41;;;;;;;16.53;9.07;;;;;6.20;102029.00;;;;4893421;29;20851;-70
2022/03/06 10:33:28;;;;;;;14.97;8.80;;;;;6.40;102028.00;;;;4899306;29;20249;-69
2022/03/06 10:36:14;;;;;;;15.60;8.47;;;;;6.50;102023.00;;;;4900546;29;20229;-67
2022/03/06 10:39:01;;;;;;;15.53;8.93;;;;;6.50;102039.00;;;;4898651;29;20727;-69
2022/03/06 10:41:49;;;;;;;14.80;8.80;;;;;6.50;102027.00;;;;4893930;29;20238;-69
2022/03/06 10:44:46;;;;;;;16.23;9.40;;;;;6.60;102042.00;;;;4893705;29;20241;-69
2022/03/06 10:47:49;;;;;;;17.50;9.30;;;;;6.70;102024.00;;;;4892276;29;20269;-70
2022/03/06 10:50:35;;;;;;;15.93;8.47;;;;;6.90;102026.00;;;;4895241;29;20237;-71
2022/03/06 10:53:23;;;;;;;15.27;7.80;;;;;6.80;102027.00;;;;4896213;29;20254;-71
2022/03/06 10:56:11;;;;;;;17.40;9.27;;;;;6.90;102027.00;;;;4892430;29;20238;-71
2022/03/06 10:58:58;;;;;;;13.90;8.60;;;;;6.90;102020.00;;;;4891877;29;20241;-68
2022/03/06 11:01:48;;;;;;;16.60;8.80;;;;;6.90;102018.00;;;;4894065;29;20237;-68
2022/03/06 11:04:36;;;;;;;16.67;9.27;;;;;6.80;102022.00;;;;4892477;29;20236;-70
2022/03/06 11:07:23;;;;;;;16.93;8.93;;;;;6.70;102018.00;;;;4902476;29;20236;-69
2022/03/06 11:10:12;;;;;;;15.57;8.53;;;;;6.70;102017.00;;;;4902034;29;20245;-72
2022/03/06 11:12:59;;;;;;;13.47;7.97;;;;;7.10;102011.00;;;;4906892;29;20262;-72
2022/03/06 11:15:45;;;;;;;20.83;9.97;;;;;7.40;102015.00;;;;4910750;29;20725;-73
2022/03/06 11:18:34;;;;;;;16.80;8.90;;;;;7.30;101972.00;;;;4910347;29;20248;-72
2022/03/06 11:21:24;;;;;;;15.67;8.93;;;;;7.50;102013.00;;;;4906210;29;20730;-69
2022/03/06 11:24:14;;;;;;;14.37;8.67;;;;;7.30;102006.00;;;;4901883;29;20229;-71
2022/03/06 11:27:40;;;;;;;16.17;8.87;;;;;7.60;102009.00;;;;4909038;29;20878;-69
2022/03/06 11:30:27;;;;;;;16.07;9.10;;;;;7.60;102015.00;;;;4884573;29;20285;-72
2022/03/06 11:33:13;;;;;;;24.97;11.57;;;;;7.70;102009.00;;;;4896097;29;20236;-71
2022/03/06 11:36:18;;;;;;;14.73;8.70;;;;;7.80;102021.00;;;;4899931;29;20309;-69
2022/03/06 11:39:04;;;;;;;14.63;8.43;;;;;7.70;102006.00;;;;4898307;29;20377;-69
2022/03/06 11:41:51;;;;;;;14.43;8.60;;;;;7.70;102000.00;;;;4909030;29;20361;-69
2022/03/06 11:44:38;;;;;;;14.10;8.60;;;;;7.90;102010.00;;;;4906346;29;20237;-70
2022/03/06 11:47:39;;;;;;;13.10;8.50;;;;;8.10;102011.00;;;;4907256;29;20401;-69
2022/03/06 11:50:28;;;;;;;14.50;8.43;;;;;8.30;102005.00;;;;4910540;29;20237;-69
2022/03/06 11:53:47;;;;;;;14.27;7.90;;;;;8.60;101999.00;;;;4902858;29;20952;-69
2022/03/06 11:56:52;;;;;;;15.23;8.30;;;;;8.50;102007.00;;;;4907746;29;20285;-67
2022/03/06 11:59:44;;;;;;;15.77;8.37;;;;;8.60;102009.00;;;;4907070;29;20244;-70
2022/03/06 12:02:30;;;;;;;14.93;8.63;;;;;8.30;102004.00;;;;4908419;29;20253;-67
2022/03/06 12:05:18;;;;;;;13.57;8.07;;;;;8.30;102007.00;;;;4904836;29;20240;-68
2022/03/06 12:08:10;;;;;;;11.47;7.97;;;;;8.30;102002.00;;;;4901199;29;20262;-70
2022/03/06 12:10:58;;;;;;;14.63;8.70;;;;;8.20;102000.00;;;;4908010;29;20229;-71
2022/03/06 12:13:50;;;;;;;13.53;8.47;;;;;8.10;101998.00;;;;4910612;29;20228;-70
2022/03/06 12:16:36;;;;;;;13.80;8.43;;;;;7.80;101992.00;;;;4913758;29;22809;-71
2022/03/06 12:19:22;;;;;;;12.27;7.37;;;;;7.70;101997.00;;;;4911066;29;20316;-70
2022/03/06 12:22:09;;;;;;;12.67;8.20;;;;;7.80;101998.00;;;;4905239;29;20236;-68
2022/03/06 12:25:18;;;;;;;15.50;8.47;;;;;7.60;101996.00;;;;4911174;29;20233;-69
2022/03/06 12:28:40;;;;;;;12.47;7.20;;;;;7.60;102000.00;;;;4913302;29;20422;-69
2022/03/06 12:31:37;;;;;;;11.97;7.07;;;;;7.20;101999.00;;;;4907170;29;20232;-69
2022/03/06 12:34:39;;;;;;;13.40;7.70;;;;;7.30;101990.00;;;;4906796;29;20587;-69
2022/03/06 12:37:26;;;;;;;13.00;7.87;;;;;7.30;101998.00;;;;4908896;29;20281;-69
2022/03/06 12:40:14;;;;;;;11.87;7.17;;;;;7.70;101994.00;;;;4905251;29;20361;-68
2022/03/06 12:43:03;;;;;;;13.97;7.43;;;;;7.70;101992.00;;;;4911164;29;20233;-69
2022/03/06 12:45:51;;;;;;;12.83;7.57;;;;;7.70;101986.00;;;;4911150;29;20587;-69
2022/03/06 12:48:38;;;;;;;15.30;7.83;;;;;7.60;101986.00;;;;4909889;29;20322;-70
2022/03/06 12:51:33;;;;;;;12.63;7.33;;;;;7.40;101993.00;;;;4913064;29;20232;-69
2022/03/06 12:54:22;;;;;;;11.23;6.83;;;;;7.10;101984.00;;;;4909952;29;20241;-69
2022/03/06 12:57:09;;;;;;;10.83;7.37;;;;;7.20;101975.00;;;;4905056;29;20369;-69
2022/03/06 12:59:55;;;;;;;12.27;7.77;;;;;7.50;101983.00;;;;4910405;29;20249;-69
2022/03/06 13:02:47;;;;;;;13.87;7.93;;;;;7.60;101978.00;;;;4912904;29;20241;-66
2022/03/06 13:05:35;;;;;;;11.17;7.00;;;;;7.40;101990.00;;;;4910434;29;20935;-70
2022/03/06 13:08:24;;;;;;;11.23;6.93;;;;;7.10;101980.00;;;;4905709;29;20329;-69
2022/03/06 13:11:10;;;;;;;10.60;6.57;;;;;6.90;101983.00;;;;4884699;29;20285;-66
2022/03/06 13:14:02;;;;;;;11.53;6.40;;;;;6.80;101978.00;;;;4901712;29;20236;-67
2022/03/06 13:16:48;;;;;;;10.57;6.27;;;;;7.10;101976.00;;;;4908836;29;20781;-68
2022/03/06 13:19:43;;;;;;;11.63;7.10;;;;;7.80;101976.00;;;;4909813;29;20244;-69
2022/03/06 13:22:31;;;;;;;17.13;7.30;;;;;8.20;101966.00;;;;4908344;29;20260;-68
2022/03/06 13:25:17;;;;;;;9.53;6.47;;;;;8.30;101971.00;;;;4903792;29;20311;-71
2022/03/06 13:28:05;;;;;;;12.27;7.83;;;;;8.50;101951.00;;;;4908349;29;20281;-66
2022/03/06 13:30:59;;;;;;;10.83;6.80;;;;;8.40;101971.00;;;;4910095;29;20241;-70
2022/03/06 13:33:46;;;;;;;10.23;6.10;;;;;8.80;101974.00;;;;4902865;29;20305;-69
2022/03/06 13:36:35;;;;;;;11.80;6.50;;;;;8.30;101973.00;;;;4902885;29;20251;-69
2022/03/06 13:39:22;;;;;;;10.00;6.43;;;;;7.80;101975.00;;;;4892055;29;20254;-70
2022/03/06 13:42:08;;;;;;;12.87;7.30;;;;;7.50;101974.00;;;;4906177;29;20378;-69
2022/03/06 13:44:57;;;;;;;11.50;6.87;;;;;7.30;101979.00;;;;4908038;29;20369;-70
2022/03/06 13:47:47;;;;;;;10.87;6.43;;;;;7.40;101973.00;;;;4909342;29;20237;-69